Custer Park, Illinois
Current Conditions -  °F | °C
As of 3:55 AM on Saturday 27 Dec 2014 (Local Time) from KJOT Reporting Station
Overcast Overcast  
Wind Chill: 40°   Ceiling: 700
Heat Index: 46°   Visibility: 10mi
Dew Point: 44°   Wind: 12mph
Humidity: 92%   Direction: 190°S
Pressure: 29.98"   Gusts: 20mph
Location:  41.3199°N, 88.0518°W
Report Text: KJOT 270955Z AUTO 19010G17KT 10SM OVC007 08/07 A2998 RMK AO2 T00770065
Loading
Personal Weather Stations






























Interactive Weather Map New forecast layout! Learn more

10-Day Weather Forecast

Advertisements
Track Severe Weather on mobile